Time;durP1;ratioP1;P1;durP2;ratioP2;P2;SDS_P1;SDS_P2;PMS_P1;PMS_P2;Temp;Humidity;BMP_temperature;BMP_pressure;BME280_temperature;BME280_humidity;BME280_pressure;Samples;Min_cycle;Max_cycle;Signal;HPM_P1;HPM_P2
2022/03/11 00:00:48;;;;;;;7.55;5.70;;;;;;;-3.53;86.04;93173.50;2114813;28;20015;-78
2022/03/11 00:01:49;;;;;;;8.48;6.13;;;;;;;-3.52;85.47;93169.81;2115068;28;20026;-80
2022/03/11 00:02:50;;;;;;;9.75;6.18;;;;;;;-3.51;85.07;93176.53;2098314;28;20016;-79
2022/03/11 00:03:51;;;;;;;8.10;5.90;;;;;;;-3.52;85.68;93169.81;2090127;28;20021;-80
2022/03/11 00:04:52;;;;;;;8.43;5.47;;;;;;;-3.51;85.13;93172.09;2098254;28;20024;-80
2022/03/11 00:05:53;;;;;;;8.45;6.10;;;;;;;-3.67;86.56;93174.59;2089955;28;20044;-80
2022/03/11 00:06:54;;;;;;;7.07;5.63;;;;;;;-3.63;86.73;93174.69;2086787;28;20028;-78
2022/03/11 00:07:55;;;;;;;9.82;6.20;;;;;;;-3.67;85.92;93171.97;2098280;28;20506;-80
2022/03/11 00:08:56;;;;;;;7.25;5.95;;;;;;;-3.51;85.76;93171.31;2090028;28;20705;-81
2022/03/11 00:09:57;;;;;;;7.78;5.88;;;;;;;-3.55;85.66;93169.38;2090188;28;20365;-79
2022/03/11 00:10:58;;;;;;;8.57;6.00;;;;;;;-3.65;86.46;93174.25;2089977;28;20124;-79
2022/03/11 00:12:00;;;;;;;9.90;6.45;;;;;;;-3.71;87.07;93175.56;2081147;28;20036;-81
2022/03/11 00:13:00;;;;;;;7.63;5.80;;;;;;;-3.63;86.35;93175.47;2098511;28;20059;-79
2022/03/11 00:14:01;;;;;;;7.47;5.63;;;;;;;-3.67;86.87;93179.81;2106366;28;20074;-81
2022/03/11 00:15:05;;;;;;;6.78;5.53;;;;;;;-3.76;88.49;93168.69;2098183;28;20032;-81
2022/03/11 00:16:06;;;;;;;8.50;5.63;;;;;;;-3.72;88.14;93174.03;2098443;28;20060;-79
2022/03/11 00:17:07;;;;;;;10.18;6.22;;;;;;;-3.57;86.58;93170.78;2090093;28;20025;-79
2022/03/11 00:18:08;;;;;;;7.38;6.05;;;;;;;-3.66;86.29;93173.50;2106772;28;20472;-81
2022/03/11 00:19:10;;;;;;;9.50;6.30;;;;;;;-3.72;86.64;93169.56;2123491;27;20038;-79
2022/03/11 00:20:11;;;;;;;8.18;5.82;;;;;;;-3.82;88.01;93173.38;2114854;28;20020;-78
2022/03/11 00:21:16;;;;;;;9.70;6.05;;;;;;;-3.77;87.12;93177.63;2098197;28;20024;-80
2022/03/11 00:22:17;;;;;;;9.82;5.82;;;;;;;-3.69;86.34;93170.75;2099174;28;20332;-79
2022/03/11 00:23:18;;;;;;;8.48;6.28;;;;;;;-3.70;87.02;93170.00;2106316;28;20051;-80
2022/03/11 00:24:19;;;;;;;8.05;6.18;;;;;;;-3.62;86.67;93169.13;2106046;28;20024;-80
2022/03/11 00:25:21;;;;;;;7.30;5.72;;;;;;;-3.69;86.84;93168.91;2106258;28;20020;-81
2022/03/11 00:26:22;;;;;;;11.65;6.90;;;;;;;-3.66;86.66;93170.88;2098205;28;20016;-79
2022/03/11 00:27:23;;;;;;;9.07;6.05;;;;;;;-3.72;87.21;93166.97;2098503;28;20056;-79
2022/03/11 00:28:24;;;;;;;8.20;6.00;;;;;;;-3.77;87.32;93164.56;2115086;28;20060;-81
2022/03/11 00:29:25;;;;;;;8.75;6.03;;;;;;;-3.74;87.48;93169.13;2106347;28;20855;-80
2022/03/11 00:30:29;;;;;;;9.50;5.90;;;;;;;-3.85;88.24;93162.81;2090092;28;20028;-79
2022/03/11 00:31:30;;;;;;;8.15;6.10;;;;;;;-3.94;88.51;93168.13;2091020;28;20441;-81
2022/03/11 00:32:31;;;;;;;8.00;5.97;;;;;;;-4.01;87.96;93162.66;2090003;28;20513;-79
2022/03/11 00:33:32;;;;;;;10.57;6.20;;;;;;;-3.89;87.70;93169.75;2106477;28;20039;-80
2022/03/11 00:34:34;;;;;;;7.65;5.70;;;;;;;-3.93;88.97;93169.63;2114128;28;20057;-79
2022/03/11 00:35:35;;;;;;;8.50;6.80;;;;;;;-3.86;88.20;93161.28;2097878;28;20024;-79
2022/03/11 00:36:37;;;;;;;8.25;5.95;;;;;;;-3.93;89.51;93161.03;2097980;28;20021;-80
2022/03/11 00:37:39;;;;;;;8.90;6.20;;;;;;;-3.82;89.06;93159.53;2097919;28;20481;-79
2022/03/11 00:38:40;;;;;;;8.20;5.95;;;;;;;-3.78;88.99;93163.03;2106933;27;20119;-80
2022/03/11 00:39:41;;;;;;;9.18;6.30;;;;;;;-3.84;89.27;93159.84;2106648;28;20464;-79
2022/03/11 00:40:42;;;;;;;9.48;6.10;;;;;;;-3.88;91.02;93158.22;2089952;28;20021;-80
2022/03/11 00:41:45;;;;;;;9.88;5.97;;;;;;;-4.00;89.62;93158.94;2089985;28;20025;-78
2022/03/11 00:42:46;;;;;;;9.15;5.65;;;;;;;-3.97;91.17;93160.16;2090736;28;20051;-81
2022/03/11 00:43:47;;;;;;;8.05;6.25;;;;;;;-3.93;90.74;93159.19;2090134;28;20072;-81
2022/03/11 00:44:48;;;;;;;9.30;6.65;;;;;;;-3.94;90.46;93162.91;2089762;28;20021;-79
2022/03/11 00:45:49;;;;;;;7.72;6.07;;;;;;;-4.03;92.21;93157.00;2089787;28;20033;-79
2022/03/11 00:46:50;;;;;;;12.85;6.60;;;;;;;-4.09;91.61;93163.50;2089622;28;20505;-81
2022/03/11 00:47:51;;;;;;;8.77;6.30;;;;;;;-4.03;90.89;93151.78;2097493;28;20054;-81
2022/03/11 00:48:52;;;;;;;10.20;6.55;;;;;;;-4.03;91.43;93153.63;2098007;28;20025;-81
2022/03/11 00:49:53;;;;;;;12.02;6.97;;;;;;;-4.06;91.12;93152.41;2106318;28;20024;-81
2022/03/11 00:50:58;;;;;;;8.48;6.03;;;;;;;-4.09;92.01;93156.44;2097926;28;20099;-80
2022/03/11 00:51:59;;;;;;;10.43;6.38;;;;;;;-4.12;91.63;93154.47;2090642;28;20474;-81
2022/03/11 00:53:01;;;;;;;11.23;7.15;;;;;;;-4.15;92.24;93152.50;2089897;28;20024;-81
2022/03/11 00:54:03;;;;;;;10.20;6.15;;;;;;;-4.03;91.81;93154.41;2098405;28;20111;-80
2022/03/11 00:55:04;;;;;;;8.70;6.70;;;;;;;-4.08;90.86;93147.53;2097781;28;20020;-79
2022/03/11 00:56:05;;;;;;;13.32;6.88;;;;;;;-4.01;90.95;93154.81;2106543;28;20024;-80
2022/03/11 00:57:06;;;;;;;9.77;6.20;;;;;;;-3.97;90.66;93158.31;2106153;28;20079;-81
2022/03/11 00:58:07;;;;;;;10.55;7.10;;;;;;;-4.05;91.54;93153.94;2089464;28;20049;-78
2022/03/11 00:59:08;;;;;;;9.63;6.28;;;;;;;-4.09;91.34;93159.03;2089847;28;20028;-79
2022/03/11 01:00:10;;;;;;;10.23;6.75;;;;;;;-4.01;89.45;93154.06;2097438;28;20055;-82
2022/03/11 01:01:10;;;;;;;8.73;6.13;;;;;;;-4.01;89.45;93151.44;2097833;28;20509;-79
2022/03/11 01:02:13;;;;;;;9.52;6.45;;;;;;;-4.02;90.09;93152.53;2097691;28;20055;-79
2022/03/11 01:03:14;;;;;;;11.05;6.93;;;;;;;-4.05;90.23;93148.72;2098169;28;20423;-79
2022/03/11 01:04:15;;;;;;;13.07;6.43;;;;;;;-4.02;90.72;93153.31;2097652;28;20032;-82
2022/03/11 01:05:16;;;;;;;10.75;6.85;;;;;;;-4.10;90.94;93146.31;2105879;28;20513;-79
2022/03/11 01:06:17;;;;;;;8.70;6.35;;;;;;;-4.07;91.07;93145.69;2106322;28;20024;-80
2022/03/11 01:07:18;;;;;;;11.48;6.53;;;;;;;-4.03;90.49;93146.56;2090868;28;20501;-81
2022/03/11 01:08:19;;;;;;;9.70;7.15;;;;;;;-4.05;90.02;93140.88;2085830;28;20023;-81
2022/03/11 01:09:20;;;;;;;7.82;6.30;;;;;;;-3.97;89.86;93137.44;2089479;28;20527;-81
2022/03/11 01:10:21;;;;;;;9.63;6.20;;;;;;;-4.05;89.16;93148.72;2081749;28;20056;-80
2022/03/11 01:11:22;;;;;;;10.20;6.63;;;;;;;-4.07;90.52;93143.84;2090513;28;20485;-80
2022/03/11 01:12:23;;;;;;;8.88;6.35;;;;;;;-4.01;89.72;93141.75;2086031;28;20103;-81
2022/03/11 01:13:24;;;;;;;11.45;6.63;;;;;;;-4.01;89.93;93139.16;2073165;28;20026;-79
2022/03/11 01:14:25;;;;;;;9.77;6.22;;;;;;;-4.10;90.02;93136.63;2081247;28;20037;-79
2022/03/11 01:15:27;;;;;;;11.13;6.45;;;;;;;-4.02;89.87;93144.72;2097692;28;20779;-80
2022/03/11 01:16:28;;;;;;;7.63;5.53;;;;;;;-4.07;90.06;93133.38;2089172;28;20025;-81
2022/03/11 01:17:29;;;;;;;8.57;6.53;;;;;;;-3.94;89.58;93136.78;2081406;28;20028;-79
2022/03/11 01:18:31;;;;;;;8.70;6.30;;;;;;;-4.00;90.02;93130.22;2097950;28;20028;-82
2022/03/11 01:19:31;;;;;;;9.02;6.68;;;;;;;-4.08;91.29;93131.13;2097741;28;20485;-81
2022/03/11 01:20:32;;;;;;;7.45;5.97;;;;;;;-4.17;92.15;93131.19;2097554;28;20047;-77
2022/03/11 01:21:33;;;;;;;10.02;6.63;;;;;;;-4.10;91.45;93131.41;2081108;28;20052;-82
2022/03/11 01:22:34;;;;;;;11.70;6.75;;;;;;;-4.09;91.61;93126.97;2097630;28;20089;-81
2022/03/11 01:23:35;;;;;;;9.75;7.25;;;;;;;-4.14;91.68;93133.16;2097483;28;20050;-80
2022/03/11 01:24:36;;;;;;;10.05;6.43;;;;;;;-4.11;90.81;93123.91;2089161;28;20064;-79
2022/03/11 01:25:37;;;;;;;11.57;6.80;;;;;;;-4.04;90.03;93126.75;2097546;28;20039;-78
2022/03/11 01:26:38;;;;;;;12.55;7.10;;;;;;;-4.11;91.15;93121.31;2105901;28;20115;-78
2022/03/11 01:27:39;;;;;;;9.43;6.60;;;;;;;-4.24;91.70;93128.34;2104910;28;20024;-79
2022/03/11 01:28:42;;;;;;;8.48;6.32;;;;;;;-4.16;91.82;93126.75;2089525;28;20108;-81
2022/03/11 01:29:43;;;;;;;12.13;7.00;;;;;;;-4.10;91.13;93123.59;2097720;28;20028;-80
2022/03/11 01:30:43;;;;;;;9.23;6.72;;;;;;;-4.07;91.55;93120.34;2089115;28;20025;-79
2022/03/11 01:31:44;;;;;;;10.07;6.95;;;;;;;-4.06;91.31;93121.09;2081174;28;20524;-80
2022/03/11 01:32:45;;;;;;;10.18;6.55;;;;;;;-4.12;92.17;93119.78;2089333;28;20032;-77
2022/03/11 01:33:47;;;;;;;10.23;7.15;;;;;;;-4.13;91.48;93131.28;2089276;28;20049;-78
2022/03/11 01:34:48;;;;;;;10.68;6.70;;;;;;;-4.17;91.43;93128.59;2097672;28;20032;-81
2022/03/11 01:35:49;;;;;;;9.45;6.47;;;;;;;-4.19;92.07;93120.31;2105672;28;20024;-80
2022/03/11 01:36:50;;;;;;;10.35;6.63;;;;;;;-4.25;93.09;93124.22;2102694;28;20024;-80
2022/03/11 01:37:51;;;;;;;8.35;6.60;;;;;;;-4.28;93.82;93121.47;2097414;28;20032;-81
2022/03/11 01:38:54;;;;;;;12.27;6.75;;;;;;;-4.37;94.03;93124.19;2097627;28;20691;-80
2022/03/11 01:39:55;;;;;;;10.13;6.32;;;;;;;-4.37;93.71;93113.75;2097475;28;20080;-81
2022/03/11 01:40:56;;;;;;;9.77;6.72;;;;;;;-4.33;92.84;93120.59;2089269;28;20373;-80
2022/03/11 01:41:57;;;;;;;11.43;6.82;;;;;;;-4.41;92.62;93113.63;2080905;28;20466;-80
2022/03/11 01:43:27;;;;;;;8.85;6.43;;;;;;;-4.43;93.60;93121.00;2081134;28;20029;-79
2022/03/11 01:44:28;;;;;;;11.77;6.28;;;;;;;-4.35;92.51;93116.78;2095979;28;20086;-80
2022/03/11 01:45:29;;;;;;;10.10;6.40;;;;;;;-4.47;93.23;93122.75;2089124;28;20028;-79
2022/03/11 01:46:30;;;;;;;11.52;6.95;;;;;;;-4.51;94.50;93115.88;2089306;28;20074;-80
2022/03/11 01:47:31;;;;;;;10.30;6.15;;;;;;;-4.49;94.26;93109.25;2089290;28;20115;-79
2022/03/11 01:48:32;;;;;;;10.63;6.60;;;;;;;-4.51;95.13;93121.09;2088803;28;20462;-80
2022/03/11 01:49:34;;;;;;;12.25;7.13;;;;;;;-4.44;94.45;93116.84;2097487;28;20140;-78
2022/03/11 01:50:35;;;;;;;10.57;6.72;;;;;;;-4.50;94.58;93118.16;2097410;28;20028;-81
2022/03/11 01:51:41;;;;;;;10.85;6.97;;;;;;;-4.31;93.74;93115.06;2089217;28;20025;-79
2022/03/11 01:52:42;;;;;;;11.48;6.43;;;;;;;-4.27;92.90;93118.53;2097975;28;20115;-78
2022/03/11 01:53:45;;;;;;;9.70;6.80;;;;;;;-4.39;93.48;93119.28;2097424;28;20029;-80
2022/03/11 01:54:46;;;;;;;11.57;6.93;;;;;;;-4.38;93.75;93109.63;2089561;28;20037;-78
2022/03/11 01:55:47;;;;;;;10.20;6.93;;;;;;;-4.45;93.34;93114.59;2089069;28;20103;-79
2022/03/11 01:56:48;;;;;;;10.30;6.35;;;;;;;-4.51;94.07;93114.03;2089081;28;20081;-78
2022/03/11 01:57:49;;;;;;;10.38;6.65;;;;;;;-4.44;93.99;93118.72;2080838;28;20029;-80
2022/03/11 01:58:53;;;;;;;12.05;6.70;;;;;;;-4.46;93.52;93111.22;2080804;28;20032;-81
2022/03/11 01:59:57;;;;;;;8.95;6.13;;;;;;;-4.48;94.11;93113.38;2089472;28;20048;-80
2022/03/11 02:00:57;;;;;;;10.75;6.78;;;;;;;-4.53;94.33;93115.41;2097386;28;20389;-78
2022/03/11 02:01:58;;;;;;;11.20;7.10;;;;;;;-4.53;94.07;93107.59;2080926;28;20030;-81
2022/03/11 02:02:59;;;;;;;11.90;6.95;;;;;;;-4.57;94.35;93116.06;2089164;28;20044;-78
2022/03/11 02:04:00;;;;;;;10.32;7.18;;;;;;;-4.54;94.61;93119.13;2081005;28;20171;-78
2022/03/11 02:05:02;;;;;;;10.20;6.60;;;;;;;-4.50;94.26;93115.53;2081098;28;20013;-79
2022/03/11 02:06:06;;;;;;;12.90;6.85;;;;;;;-4.53;93.97;93118.78;2097749;28;20547;-80
2022/03/11 02:07:08;;;;;;;11.02;6.50;;;;;;;-4.56;93.50;93109.78;2093776;28;20409;-80
2022/03/11 02:08:09;;;;;;;12.00;7.15;;;;;;;-4.47;93.56;93114.16;2081227;28;20440;-78
2022/03/11 02:09:10;;;;;;;12.10;6.72;;;;;;;-4.43;93.45;93113.19;2088147;28;20044;-80
2022/03/11 02:11:54;;;;;;;8.85;5.97;;;;;;;-4.42;92.48;93109.50;2138485;27;20522;-79
2022/03/11 02:12:57;;;;;;;9.70;6.40;;;;;;;-4.47;93.50;93107.09;2129857;27;20067;-78
2022/03/11 02:14:01;;;;;;;9.80;6.65;;;;;;;-4.56;94.20;93107.16;2113296;28;20032;-78
2022/03/11 02:15:04;;;;;;;10.35;6.80;;;;;;;-4.61;96.14;93103.97;2104913;28;20391;-79
2022/03/11 02:16:05;;;;;;;8.90;6.18;;;;;;;-4.62;96.16;93107.66;2096589;28;20024;-78
2022/03/11 02:17:06;;;;;;;12.88;7.22;;;;;;;-4.73;97.58;93111.78;2107079;28;20024;-80
2022/03/11 02:18:07;;;;;;;11.07;6.82;;;;;;;-4.60;96.65;93113.34;2112801;28;20028;-78
2022/03/11 02:19:08;;;;;;;10.25;7.15;;;;;;;-4.63;97.25;93106.91;2121656;27;20019;-79
2022/03/11 02:20:10;;;;;;;14.77;7.60;;;;;;;-4.74;96.49;93105.00;2129995;27;20050;-78
2022/03/11 02:21:12;;;;;;;8.70;6.18;;;;;;;-4.74;96.83;93107.63;2121021;28;20030;-78
2022/03/11 02:22:16;;;;;;;10.80;7.15;;;;;;;-4.65;96.12;93103.88;2104648;28;20025;-80
2022/03/11 02:23:18;;;;;;;9.98;7.13;;;;;;;-4.64;95.74;93109.84;2112834;28;20127;-79
2022/03/11 02:24:19;;;;;;;10.75;6.70;;;;;;;-4.56;95.37;93096.72;2104217;28;20029;-80
2022/03/11 02:25:20;;;;;;;10.73;6.47;;;;;;;-4.52;95.51;93096.06;2113098;28;20024;-80
2022/03/11 02:26:24;;;;;;;12.57;7.32;;;;;;;-4.60;95.44;93092.47;2112923;27;20024;-78
2022/03/11 02:27:25;;;;;;;12.85;6.50;;;;;;;-4.58;94.87;93101.50;2129734;27;20023;-80
2022/03/11 02:28:35;;;;;;;10.75;7.18;;;;;;;-4.69;95.68;93100.38;2121261;27;20046;-78
2022/03/11 02:29:37;;;;;;;10.73;6.35;;;;;;;-4.68;96.06;93106.34;2114007;28;20564;-81
2022/03/11 02:30:39;;;;;;;10.73;6.30;;;;;;;-4.72;96.29;93111.44;2112975;28;20024;-80
2022/03/11 02:31:40;;;;;;;9.85;7.15;;;;;;;-4.75;96.86;93112.06;2104364;28;20024;-81
2022/03/11 02:32:41;;;;;;;10.18;7.13;;;;;;;-4.78;97.23;93101.50;2112742;27;20048;-77
2022/03/11 02:33:42;;;;;;;10.30;6.57;;;;;;;-4.73;97.44;93107.31;2112657;28;20073;-81
2022/03/11 02:34:44;;;;;;;10.38;6.45;;;;;;;-4.67;95.84;93111.25;2112835;27;20478;-81
2022/03/11 02:35:45;;;;;;;9.70;6.70;;;;;;;-4.74;96.18;93102.41;2112483;28;20043;-78
2022/03/11 02:36:46;;;;;;;11.68;7.68;;;;;;;-4.83;96.96;93103.25;2101804;28;20028;-77
2022/03/11 02:37:47;;;;;;;12.30;6.53;;;;;;;-4.74;96.58;93105.00;2104213;28;20055;-79
2022/03/11 02:38:49;;;;;;;11.93;6.90;;;;;;;-4.90;97.29;93108.22;2095926;28;20048;-79
2022/03/11 02:39:50;;;;;;;9.88;6.60;;;;;;;-4.94;97.19;93103.97;2113285;27;20035;-79
2022/03/11 02:40:51;;;;;;;9.95;6.82;;;;;;;-4.97;99.08;93101.97;2121154;27;20387;-80
2022/03/11 02:41:52;;;;;;;13.05;7.10;;;;;;;-4.98;98.18;93108.28;2121171;27;20098;-80
2022/03/11 02:42:53;;;;;;;11.38;6.65;;;;;;;-4.98;99.09;93108.28;2112757;28;20066;-79
2022/03/11 02:43:54;;;;;;;10.48;7.30;;;;;;;-4.95;98.90;93103.19;2112563;28;20019;-78
2022/03/11 02:44:59;;;;;;;10.70;7.22;;;;;;;-4.91;98.27;93104.09;2112667;28;20026;-78
2022/03/11 02:46:00;;;;;;;8.63;6.38;;;;;;;-4.93;98.22;93093.19;2121741;27;20106;-79
2022/03/11 02:47:01;;;;;;;11.38;7.45;;;;;;;-4.96;97.75;93106.88;2120963;28;20020;-78
2022/03/11 02:48:02;;;;;;;9.38;6.95;;;;;;;-4.97;98.23;93097.53;2103791;28;20043;-80
2022/03/11 02:49:03;;;;;;;11.32;6.95;;;;;;;-4.93;98.31;93100.25;2104246;28;20032;-80
2022/03/11 02:50:05;;;;;;;9.65;6.53;;;;;;;-4.93;98.22;93100.25;2112711;28;20107;-77
2022/03/11 02:51:06;;;;;;;10.70;7.18;;;;;;;-4.94;97.67;93101.34;2112551;28;20350;-80
2022/03/11 02:52:07;;;;;;;11.00;6.88;;;;;;;-4.96;98.22;93101.69;2112533;28;20028;-78
2022/03/11 02:53:09;;;;;;;9.50;6.63;;;;;;;-4.92;97.74;93101.78;2104207;28;20496;-78
2022/03/11 02:54:09;;;;;;;11.30;6.55;;;;;;;-4.93;98.72;93092.44;2104261;28;20020;-78
2022/03/11 02:55:11;;;;;;;8.40;6.32;;;;;;;-4.91;98.12;93093.66;2104065;28;20032;-78
2022/03/11 02:56:13;;;;;;;10.68;7.63;;;;;;;-4.96;98.53;93099.06;2104223;28;20119;-80
2022/03/11 02:57:15;;;;;;;12.40;7.18;;;;;;;-4.88;98.93;93097.47;2112433;28;20073;-80
2022/03/11 02:58:16;;;;;;;9.52;7.00;;;;;;;-4.87;99.25;93093.78;2108391;28;20086;-78
2022/03/11 02:59:18;;;;;;;10.43;6.78;;;;;;;-4.85;99.52;93091.63;2112364;28;20059;-79
2022/03/11 03:00:19;;;;;;;10.52;6.63;;;;;;;-4.85;98.60;93089.00;2112165;28;20565;-80
2022/03/11 03:01:20;;;;;;;10.10;6.65;;;;;;;-4.89;98.59;93090.72;2103923;28;20032;-80
2022/03/11 03:02:21;;;;;;;15.35;6.57;;;;;;;-4.87;97.80;93084.13;2103409;28;20027;-79
2022/03/11 03:03:21;;;;;;;10.48;6.60;;;;;;;-4.75;96.82;93093.06;2111470;28;20032;-79
2022/03/11 03:04:22;;;;;;;9.27;6.80;;;;;;;-4.82;96.60;93083.16;2108247;28;20634;-78
2022/03/11 03:05:23;;;;;;;11.68;7.10;;;;;;;-4.73;96.74;93076.03;2100796;28;20113;-80
2022/03/11 03:06:24;;;;;;;11.02;6.68;;;;;;;-4.70;96.55;93085.03;2111974;28;20024;-77
2022/03/11 03:07:25;;;;;;;10.65;7.07;;;;;;;-4.76;96.51;93074.06;2109257;28;20055;-81
2022/03/11 03:08:26;;;;;;;8.23;6.28;;;;;;;-4.82;95.98;93075.34;2129455;27;20031;-79
2022/03/11 03:09:27;;;;;;;10.02;6.85;;;;;;;-4.80;96.17;93083.59;2120928;28;20114;-80
2022/03/11 03:10:28;;;;;;;10.60;6.32;;;;;;;-4.81;96.66;93071.66;2120855;28;20026;-77
2022/03/11 03:11:29;;;;;;;12.75;7.28;;;;;;;-4.90;97.50;93069.13;2112018;28;20075;-80
2022/03/11 03:12:30;;;;;;;9.38;7.55;;;;;;;-5.06;98.58;93081.19;2111855;28;20028;-80
2022/03/11 03:13:31;;;;;;;10.85;6.25;;;;;;;-5.04;98.71;93073.84;2116463;28;20459;-79
2022/03/11 03:14:32;;;;;;;10.88;6.85;;;;;;;-5.07;98.83;93075.22;2104023;28;20114;-78
2022/03/11 03:15:33;;;;;;;9.82;6.35;;;;;;;-5.00;99.47;93082.53;2103921;28;20031;-79
2022/03/11 03:16:33;;;;;;;7.50;6.22;;;;;;;-4.91;98.24;93074.66;2103903;28;20052;-80
2022/03/11 03:17:36;;;;;;;9.65;6.82;;;;;;;-4.98;97.53;93074.41;2112450;28;20027;-78
2022/03/11 03:18:37;;;;;;;9.60;6.63;;;;;;;-5.02;97.37;93070.91;2104172;28;20017;-78
2022/03/11 03:19:38;;;;;;;8.27;6.35;;;;;;;-4.91;97.14;93062.38;2103936;28;20078;-79
2022/03/11 03:20:39;;;;;;;8.98;6.72;;;;;;;-4.96;96.19;93077.44;2103941;28;20027;-80
2022/03/11 03:21:40;;;;;;;9.52;6.88;;;;;;;-4.95;95.96;93081.59;2104026;28;20017;-77
2022/03/11 03:22:41;;;;;;;10.15;6.80;;;;;;;-5.00;97.15;93076.53;2093545;28;20017;-79
2022/03/11 03:23:41;;;;;;;9.35;7.13;;;;;;;-4.98;97.64;93079.59;2089786;28;20086;-78
2022/03/11 03:24:43;;;;;;;10.07;6.57;;;;;;;-5.02;99.04;93073.50;2089824;28;20025;-80
2022/03/11 03:25:45;;;;;;;9.60;6.90;;;;;;;-5.07;99.21;93079.69;2090276;28;20025;-81
2022/03/11 03:26:48;;;;;;;10.40;7.03;;;;;;;-5.13;99.92;93076.50;2090101;28;20023;-79
2022/03/11 03:27:49;;;;;;;9.23;6.90;;;;;;;-5.19;100.00;93074.41;2098644;28;20028;-78
2022/03/11 03:28:50;;;;;;;10.82;6.60;;;;;;;-5.19;100.00;93077.00;2090198;28;20055;-78
2022/03/11 03:29:50;;;;;;;9.13;6.93;;;;;;;-5.20;100.00;93078.84;2103064;28;20020;-80
2022/03/11 03:30:51;;;;;;;12.70;7.55;;;;;;;-5.17;100.00;93078.22;2106594;28;20067;-79
2022/03/11 03:31:58;;;;;;;12.57;6.57;;;;;;;-5.14;100.00;93074.97;2098128;28;20029;-79
2022/03/11 03:32:59;;;;;;;9.98;6.40;;;;;;;-5.12;100.00;93074.66;2107357;28;20081;-78
2022/03/11 03:34:00;;;;;;;11.95;6.97;;;;;;;-5.14;100.00;93074.97;2115138;28;20080;-77
2022/03/11 03:35:01;;;;;;;9.07;7.18;;;;;;;-5.06;100.00;93070.78;2096507;28;20051;-81
2022/03/11 03:36:02;;;;;;;9.23;6.93;;;;;;;-5.03;100.00;93074.59;2089469;28;20063;-79
2022/03/11 03:37:07;;;;;;;10.13;6.88;;;;;;;-5.06;100.00;93071.53;2094524;28;20029;-80
2022/03/11 03:38:08;;;;;;;7.63;6.30;;;;;;;-5.10;100.00;93077.69;2090896;28;20420;-79
2022/03/11 03:39:09;;;;;;;8.90;6.68;;;;;;;-5.17;100.00;93073.00;2098349;28;20025;-79
2022/03/11 03:40:10;;;;;;;7.60;6.07;;;;;;;-5.16;100.00;93074.53;2106433;28;20024;-78
2022/03/11 03:41:11;;;;;;;10.70;6.88;;;;;;;-5.12;100.00;93083.25;2106739;28;20034;-78
2022/03/11 03:42:12;;;;;;;10.25;6.93;;;;;;;-5.14;100.00;93072.34;2106636;28;20032;-77
2022/03/11 03:43:13;;;;;;;12.32;6.60;;;;;;;-5.10;100.00;93067.28;2106607;28;20042;-77
2022/03/11 03:44:14;;;;;;;9.85;6.10;;;;;;;-5.06;100.00;93070.78;2090129;28;20035;-79
2022/03/11 03:45:15;;;;;;;13.45;6.75;;;;;;;-4.99;99.51;93073.63;2090032;28;20028;-80
2022/03/11 03:46:16;;;;;;;10.38;6.50;;;;;;;-5.02;99.92;93068.28;2106507;28;20027;-78
2022/03/11 03:47:17;;;;;;;11.18;6.45;;;;;;;-4.89;98.96;93062.81;2106518;28;20032;-80
2022/03/11 03:48:19;;;;;;;9.50;6.68;;;;;;;-4.90;98.83;93063.91;2089456;28;20024;-78
2022/03/11 03:49:21;;;;;;;8.85;6.70;;;;;;;-4.94;99.73;93070.84;2098549;28;20456;-78
2022/03/11 03:50:22;;;;;;;8.98;6.75;;;;;;;-5.12;100.00;93072.81;2098924;28;20060;-79
2022/03/11 03:51:23;;;;;;;9.75;6.80;;;;;;;-5.21;100.00;93064.31;2097910;28;20040;-79
2022/03/11 03:52:24;;;;;;;10.70;7.18;;;;;;;-5.20;100.00;93070.28;2089694;28;20099;-81
2022/03/11 03:53:25;;;;;;;9.68;6.60;;;;;;;-5.05;99.92;93072.28;2098275;28;20023;-80
2022/03/11 03:54:26;;;;;;;13.30;7.38;;;;;;;-5.04;99.21;93062.66;2106503;28;20384;-78
2022/03/11 03:55:27;;;;;;;8.20;6.45;;;;;;;-5.07;100.00;93066.66;2106549;28;20155;-81
2022/03/11 03:56:28;;;;;;;10.93;6.78;;;;;;;-5.12;100.00;93065.00;2106664;28;20055;-78
2022/03/11 03:57:28;;;;;;;9.48;6.60;;;;;;;-5.13;100.00;93060.88;2098178;28;20028;-81
2022/03/11 03:58:29;;;;;;;8.88;5.82;;;;;;;-5.00;99.71;93059.09;2089892;28;20028;-79
2022/03/11 03:59:30;;;;;;;10.05;7.10;;;;;;;-5.01;98.86;93060.16;2098085;28;20020;-82
2022/03/11 04:00:31;;;;;;;8.27;6.25;;;;;;;-5.32;99.90;93060.53;2089410;28;20032;-79
2022/03/11 04:01:40;;;;;;;10.80;6.70;;;;;;;-5.19;100.00;93064.72;2081637;28;20017;-81
2022/03/11 04:02:47;;;;;;;12.73;6.90;;;;;;;-5.10;100.00;93057.63;2083832;28;20025;-79
2022/03/11 04:03:48;;;;;;;9.43;6.22;;;;;;;-5.15;99.62;93057.81;2083187;28;20998;-80
2022/03/11 04:04:49;;;;;;;9.55;6.03;;;;;;;-5.13;99.44;93053.06;2089750;28;20021;-79
2022/03/11 04:05:50;;;;;;;7.63;6.18;;;;;;;-5.41;100.00;93059.84;2106583;28;20024;-80
2022/03/11 04:06:51;;;;;;;9.27;6.75;;;;;;;-5.39;100.00;93063.66;2097210;28;20020;-78
2022/03/11 04:08:03;;;;;;;9.50;6.45;;;;;;;-5.37;100.00;93055.53;2089750;28;20036;-80
2022/03/11 04:09:07;;;;;;;10.70;6.80;;;;;;;-5.35;100.00;93053.38;2107862;28;20024;-78
2022/03/11 04:10:10;;;;;;;10.02;7.25;;;;;;;-5.34;100.00;93060.09;2106468;28;20024;-79
2022/03/11 04:11:10;;;;;;;9.48;6.38;;;;;;;-5.38;100.00;93064.44;2105966;28;20125;-79
2022/03/11 04:12:11;;;;;;;10.73;6.55;;;;;;;-5.34;100.00;93057.50;2114379;28;20031;-81
2022/03/11 04:13:12;;;;;;;8.20;6.50;;;;;;;-5.33;100.00;93064.22;2106204;28;20048;-80
2022/03/11 04:14:13;;;;;;;8.52;6.90;;;;;;;-5.36;100.00;93063.00;2106384;28;20596;-80
2022/03/11 04:15:14;;;;;;;9.93;7.00;;;;;;;-5.39;100.00;93065.50;2106455;28;20813;-81
2022/03/11 04:16:16;;;;;;;9.90;7.03;;;;;;;-5.32;100.00;93052.72;2101745;28;20035;-80
2022/03/11 04:17:17;;;;;;;11.32;7.32;;;;;;;-5.15;100.00;93060.41;2097951;28;20024;-77
2022/03/11 04:18:18;;;;;;;8.98;6.60;;;;;;;-5.22;100.00;93062.03;2089760;28;20032;-79
2022/03/11 04:19:19;;;;;;;10.52;6.80;;;;;;;-5.29;100.00;93053.94;2098218;28;20214;-80
2022/03/11 04:20:21;;;;;;;8.68;6.47;;;;;;;-5.27;100.00;93056.97;2098034;28;20492;-82
2022/03/11 04:21:22;;;;;;;9.02;7.15;;;;;;;-5.19;100.00;93062.13;2106357;28;20443;-79
2022/03/11 04:22:23;;;;;;;12.75;7.15;;;;;;;-5.20;100.00;93059.84;2114666;28;20016;-80
2022/03/11 04:23:24;;;;;;;10.45;6.90;;;;;;;-5.32;100.00;93061.31;2106272;28;20027;-78
2022/03/11 04:24:25;;;;;;;8.75;7.05;;;;;;;-5.30;100.00;93070.66;2097362;28;20500;-81
2022/03/11 04:25:26;;;;;;;10.50;6.78;;;;;;;-5.31;100.00;93064.69;2098123;28;20461;-79
2022/03/11 04:26:26;;;;;;;11.73;7.15;;;;;;;-5.33;100.00;93070.19;2106226;28;20016;-81
2022/03/11 04:27:27;;;;;;;14.13;7.15;;;;;;;-5.36;100.00;93073.44;2106217;28;20107;-78
2022/03/11 04:28:29;;;;;;;11.95;7.13;;;;;;;-5.25;100.00;93073.06;2097887;28;20032;-80
2022/03/11 04:29:29;;;;;;;10.60;6.93;;;;;;;-5.36;100.00;93060.41;2106191;28;20031;-78
2022/03/11 04:30:30;;;;;;;8.23;6.75;;;;;;;-5.11;100.00;93065.75;2106129;28;20721;-78
2022/03/11 04:31:31;;;;;;;10.13;6.93;;;;;;;-5.12;100.00;93067.59;2099598;28;20016;-81
2022/03/11 04:32:32;;;;;;;8.88;6.95;;;;;;;-4.93;100.00;93064.53;2089426;28;20045;-81
2022/03/11 04:33:34;;;;;;;10.43;6.53;;;;;;;-4.88;100.00;93068.78;2089380;28;20117;-79
2022/03/11 04:34:35;;;;;;;9.85;7.03;;;;;;;-5.07;100.00;93064.81;2097117;28;20032;-79
2022/03/11 04:35:36;;;;;;;14.50;6.72;;;;;;;-5.19;100.00;93067.34;2105877;28;20077;-80
2022/03/11 04:36:38;;;;;;;8.45;6.10;;;;;;;-5.17;100.00;93073.00;2112920;28;20088;-81
2022/03/11 04:37:39;;;;;;;11.55;7.03;;;;;;;-5.28;100.00;93066.63;2106151;28;20031;-78
2022/03/11 04:38:40;;;;;;;9.52;6.38;;;;;;;-5.36;100.00;93072.66;2106127;28;20043;-81
2022/03/11 04:39:41;;;;;;;8.50;6.65;;;;;;;-5.44;100.00;93063.84;2106163;28;20103;-79
2022/03/11 04:40:42;;;;;;;8.55;6.50;;;;;;;-5.45;100.00;93064.16;2097576;28;20060;-80
2022/03/11 04:41:44;;;;;;;10.32;6.53;;;;;;;-5.45;100.00;93070.13;2089436;28;20811;-78
2022/03/11 04:42:45;;;;;;;8.95;6.38;;;;;;;-5.46;100.00;93071.22;2097753;28;20085;-77
2022/03/11 04:43:46;;;;;;;10.55;7.40;;;;;;;-5.48;100.00;93064.81;2089474;28;20021;-78
2022/03/11 04:44:46;;;;;;;10.18;6.72;;;;;;;-5.43;100.00;93069.81;2097668;28;20016;-79
2022/03/11 04:45:48;;;;;;;9.65;6.45;;;;;;;-5.47;100.00;93061.13;2114483;28;20051;-79
2022/03/11 04:46:49;;;;;;;9.43;6.88;;;;;;;-5.52;100.00;93064.66;2097470;28;20024;-79
2022/03/11 04:47:50;;;;;;;10.88;6.95;;;;;;;-5.53;100.00;93070.97;2097470;28;20016;-79
2022/03/11 04:48:51;;;;;;;11.27;6.75;;;;;;;-5.48;100.00;93070.00;2098150;28;20036;-81